sensor_id;sensor_type;location;lat;lon;timestamp;P1;P2;P0
40947;PMS5003;49382;-25.924;28.194;2023-07-29T00:01:00;17;17;
40947;PMS5003;49382;-25.924;28.194;2023-07-29T00:03:26;16;15;
40947;PMS5003;49382;-25.924;28.194;2023-07-29T00:05:52;15;14;
40947;PMS5003;49382;-25.924;28.194;2023-07-29T00:08:17;20;18;
40947;PMS5003;49382;-25.924;28.194;2023-07-29T00:10:42;20;17;
40947;PMS5003;49382;-25.924;28.194;2023-07-29T00:13:08;16;16;
40947;PMS5003;49382;-25.924;28.194;2023-07-29T00:15:34;15;15;
40947;PMS5003;49382;-25.924;28.194;2023-07-29T00:17:59;19;16;
40947;PMS5003;49382;-25.924;28.194;2023-07-29T00:20:24;14;13;
40947;PMS5003;49382;-25.924;28.194;2023-07-29T00:22:49;13;12;
40947;PMS5003;49382;-25.924;28.194;2023-07-29T00:25:15;13;13;
40947;PMS5003;49382;-25.924;28.194;2023-07-29T00:27:40;14;13;
40947;PMS5003;49382;-25.924;28.194;2023-07-29T00:30:06;14;13;
40947;PMS5003;49382;-25.924;28.194;2023-07-29T00:32:31;11;11;
40947;PMS5003;49382;-25.924;28.194;2023-07-29T00:34:56;15;15;
40947;PMS5003;49382;-25.924;28.194;2023-07-29T00:37:22;16;14;
40947;PMS5003;49382;-25.924;28.194;2023-07-29T00:39:47;17;14;
40947;PMS5003;49382;-25.924;28.194;2023-07-29T00:42:12;11;11;
40947;PMS5003;49382;-25.924;28.194;2023-07-29T00:44:37;10;10;
40947;PMS5003;49382;-25.924;28.194;2023-07-29T00:47:02;13;12;
40947;PMS5003;49382;-25.924;28.194;2023-07-29T00:49:27;14;12;
40947;PMS5003;49382;-25.924;28.194;2023-07-29T00:51:52;10;10;
40947;PMS5003;49382;-25.924;28.194;2023-07-29T00:54:17;15;13;
40947;PMS5003;49382;-25.924;28.194;2023-07-29T00:56:42;10;10;
40947;PMS5003;49382;-25.924;28.194;2023-07-29T00:59:07;11;9;
40947;PMS5003;49382;-25.924;28.194;2023-07-29T01:01:32;13;13;
40947;PMS5003;49382;-25.924;28.194;2023-07-29T01:03:58;12;11;
40947;PMS5003;49382;-25.924;28.194;2023-07-29T01:06:26;12;11;
40947;PMS5003;49382;-25.924;28.194;2023-07-29T01:08:53;11;11;
40947;PMS5003;49382;-25.924;28.194;2023-07-29T01:11:18;15;13;
40947;PMS5003;49382;-25.924;28.194;2023-07-29T01:13:41;12;10;
40947;PMS5003;49382;-25.924;28.194;2023-07-29T01:16:06;10;10;
40947;PMS5003;49382;-25.924;28.194;2023-07-29T01:18:30;11;11;
40947;PMS5003;49382;-25.924;28.194;2023-07-29T01:20:57;13;12;
40947;PMS5003;49382;-25.924;28.194;2023-07-29T01:23:23;14;10;
40947;PMS5003;49382;-25.924;28.194;2023-07-29T01:25:45;9;9;
40947;PMS5003;49382;-25.924;28.194;2023-07-29T01:28:10;11;11;
40947;PMS5003;49382;-25.924;28.194;2023-07-29T01:30:38;12;12;
40947;PMS5003;49382;-25.924;28.194;2023-07-29T01:33:03;12;11;
40947;PMS5003;49382;-25.924;28.194;2023-07-29T01:35:27;10;10;
40947;PMS5003;49382;-25.924;28.194;2023-07-29T01:37:52;12;12;
40947;PMS5003;49382;-25.924;28.194;2023-07-29T01:40:17;14;13;
40947;PMS5003;49382;-25.924;28.194;2023-07-29T01:42:42;12;12;
40947;PMS5003;49382;-25.924;28.194;2023-07-29T01:45:08;12;12;
40947;PMS5003;49382;-25.924;28.194;2023-07-29T01:47:32;11;11;
40947;PMS5003;49382;-25.924;28.194;2023-07-29T01:49:57;10;10;
40947;PMS5003;49382;-25.924;28.194;2023-07-29T01:52:22;11;11;
40947;PMS5003;49382;-25.924;28.194;2023-07-29T01:54:47;8;8;
40947;PMS5003;49382;-25.924;28.194;2023-07-29T01:57:13;9;9;
40947;PMS5003;49382;-25.924;28.194;2023-07-29T01:59:38;12;12;
40947;PMS5003;49382;-25.924;28.194;2023-07-29T02:02:03;12;12;
40947;PMS5003;49382;-25.924;28.194;2023-07-29T02:04:28;15;14;
40947;PMS5003;49382;-25.924;28.194;2023-07-29T02:06:54;12;12;
40947;PMS5003;49382;-25.924;28.194;2023-07-29T02:09:19;12;11;
40947;PMS5003;49382;-25.924;28.194;2023-07-29T02:11:45;12;11;
40947;PMS5003;49382;-25.924;28.194;2023-07-29T02:14:10;11;11;
40947;PMS5003;49382;-25.924;28.194;2023-07-29T02:16:35;8;8;
40947;PMS5003;49382;-25.924;28.194;2023-07-29T02:19:00;14;12;
40947;PMS5003;49382;-25.924;28.194;2023-07-29T02:21:25;14;11;
40947;PMS5003;49382;-25.924;28.194;2023-07-29T02:23:51;12;11;
40947;PMS5003;49382;-25.924;28.194;2023-07-29T02:26:16;12;12;
40947;PMS5003;49382;-25.924;28.194;2023-07-29T02:28:41;10;10;
40947;PMS5003;49382;-25.924;28.194;2023-07-29T02:31:09;12;11;
40947;PMS5003;49382;-25.924;28.194;2023-07-29T02:33:31;12;12;
40947;PMS5003;49382;-25.924;28.194;2023-07-29T02:35:57;14;11;
40947;PMS5003;49382;-25.924;28.194;2023-07-29T02:38:22;15;15;
40947;PMS5003;49382;-25.924;28.194;2023-07-29T02:40:48;11;11;
40947;PMS5003;49382;-25.924;28.194;2023-07-29T02:43:13;12;11;
40947;PMS5003;49382;-25.924;28.194;2023-07-29T02:45:38;11;11;
40947;PMS5003;49382;-25.924;28.194;2023-07-29T02:48:04;13;12;
40947;PMS5003;49382;-25.924;28.194;2023-07-29T02:50:29;12;11;
40947;PMS5003;49382;-25.924;28.194;2023-07-29T02:52:55;11;11;
40947;PMS5003;49382;-25.924;28.194;2023-07-29T02:55:20;9;8;
40947;PMS5003;49382;-25.924;28.194;2023-07-29T02:57:45;15;14;
40947;PMS5003;49382;-25.924;28.194;2023-07-29T03:00:10;12;12;
40947;PMS5003;49382;-25.924;28.194;2023-07-29T03:02:35;12;12;
40947;PMS5003;49382;-25.924;28.194;2023-07-29T03:05:00;12;12;
40947;PMS5003;49382;-25.924;28.194;2023-07-29T03:07:25;13;12;
40947;PMS5003;49382;-25.924;28.194;2023-07-29T03:09:50;10;10;
40947;PMS5003;49382;-25.924;28.194;2023-07-29T03:12:15;12;11;
40947;PMS5003;49382;-25.924;28.194;2023-07-29T03:14:41;13;12;
40947;PMS5003;49382;-25.924;28.194;2023-07-29T03:17:06;12;12;
40947;PMS5003;49382;-25.924;28.194;2023-07-29T03:19:31;11;11;
40947;PMS5003;49382;-25.924;28.194;2023-07-29T03:21:57;12;11;
40947;PMS5003;49382;-25.924;28.194;2023-07-29T03:24:22;14;12;
40947;PMS5003;49382;-25.924;28.194;2023-07-29T03:26:47;11;11;
40947;PMS5003;49382;-25.924;28.194;2023-07-29T03:29:12;13;12;
40947;PMS5003;49382;-25.924;28.194;2023-07-29T03:31:37;10;10;
40947;PMS5003;49382;-25.924;28.194;2023-07-29T03:34:03;10;10;
40947;PMS5003;49382;-25.924;28.194;2023-07-29T03:36:28;13;12;
40947;PMS5003;49382;-25.924;28.194;2023-07-29T03:38:53;16;12;
40947;PMS5003;49382;-25.924;28.194;2023-07-29T03:41:18;12;11;
40947;PMS5003;49382;-25.924;28.194;2023-07-29T03:43:43;10;10;
40947;PMS5003;49382;-25.924;28.194;2023-07-29T03:46:08;11;11;
40947;PMS5003;49382;-25.924;28.194;2023-07-29T03:48:34;13;13;
40947;PMS5003;49382;-25.924;28.194;2023-07-29T03:50:59;16;12;
40947;PMS5003;49382;-25.924;28.194;2023-07-29T03:53:24;13;12;
40947;PMS5003;49382;-25.924;28.194;2023-07-29T03:55:49;12;12;
40947;PMS5003;49382;-25.924;28.194;2023-07-29T03:58:14;11;11;
40947;PMS5003;49382;-25.924;28.194;2023-07-29T04:00:39;12;12;
40947;PMS5003;49382;-25.924;28.194;2023-07-29T04:03:04;10;10;
40947;PMS5003;49382;-25.924;28.194;2023-07-29T04:05:30;11;10;
40947;PMS5003;49382;-25.924;28.194;2023-07-29T04:07:56;11;10;
40947;PMS5003;49382;-25.924;28.194;2023-07-29T04:10:21;10;10;
40947;PMS5003;49382;-25.924;28.194;2023-07-29T04:12:46;12;11;
40947;PMS5003;49382;-25.924;28.194;2023-07-29T04:15:11;13;12;
40947;PMS5003;49382;-25.924;28.194;2023-07-29T04:17:36;10;10;
40947;PMS5003;49382;-25.924;28.194;2023-07-29T04:20:01;12;11;
40947;PMS5003;49382;-25.924;28.194;2023-07-29T04:22:26;15;14;
40947;PMS5003;49382;-25.924;28.194;2023-07-29T04:24:52;14;11;
40947;PMS5003;49382;-25.924;28.194;2023-07-29T04:27:17;12;12;
40947;PMS5003;49382;-25.924;28.194;2023-07-29T04:29:42;10;10;
40947;PMS5003;49382;-25.924;28.194;2023-07-29T04:32:07;14;12;
40947;PMS5003;49382;-25.924;28.194;2023-07-29T04:34:32;12;11;
40947;PMS5003;49382;-25.924;28.194;2023-07-29T04:36:57;14;13;
40947;PMS5003;49382;-25.924;28.194;2023-07-29T04:39:22;14;12;
40947;PMS5003;49382;-25.924;28.194;2023-07-29T04:41:47;10;10;
40947;PMS5003;49382;-25.924;28.194;2023-07-29T04:44:13;12;12;
40947;PMS5003;49382;-25.924;28.194;2023-07-29T04:46:38;10;10;
40947;PMS5003;49382;-25.924;28.194;2023-07-29T04:49:03;11;11;
40947;PMS5003;49382;-25.924;28.194;2023-07-29T04:51:28;10;10;
40947;PMS5003;49382;-25.924;28.194;2023-07-29T04:53:53;11;11;
40947;PMS5003;49382;-25.924;28.194;2023-07-29T04:56:19;15;12;
40947;PMS5003;49382;-25.924;28.194;2023-07-29T04:58:44;13;12;
40947;PMS5003;49382;-25.924;28.194;2023-07-29T05:01:10;11;10;
40947;PMS5003;49382;-25.924;28.194;2023-07-29T05:03:35;12;12;
40947;PMS5003;49382;-25.924;28.194;2023-07-29T05:06:00;11;11;
40947;PMS5003;49382;-25.924;28.194;2023-07-29T05:08:25;12;12;
40947;PMS5003;49382;-25.924;28.194;2023-07-29T05:10:51;10;10;
40947;PMS5003;49382;-25.924;28.194;2023-07-29T05:13:16;10;10;
40947;PMS5003;49382;-25.924;28.194;2023-07-29T05:15:41;14;12;
40947;PMS5003;49382;-25.924;28.194;2023-07-29T05:18:06;11;11;
40947;PMS5003;49382;-25.924;28.194;2023-07-29T05:20:32;10;10;
40947;PMS5003;49382;-25.924;28.194;2023-07-29T05:22:57;11;10;
40947;PMS5003;49382;-25.924;28.194;2023-07-29T05:25:22;11;11;
40947;PMS5003;49382;-25.924;28.194;2023-07-29T05:27:47;14;13;
40947;PMS5003;49382;-25.924;28.194;2023-07-29T05:30:12;18;13;
40947;PMS5003;49382;-25.924;28.194;2023-07-29T05:32:37;12;12;
40947;PMS5003;49382;-25.924;28.194;2023-07-29T05:35:03;11;11;
40947;PMS5003;49382;-25.924;28.194;2023-07-29T05:37:29;12;12;
40947;PMS5003;49382;-25.924;28.194;2023-07-29T05:39:54;12;11;
40947;PMS5003;49382;-25.924;28.194;2023-07-29T05:42:20;12;12;
40947;PMS5003;49382;-25.924;28.194;2023-07-29T05:44:45;11;10;
40947;PMS5003;49382;-25.924;28.194;2023-07-29T05:47:11;10;10;
40947;PMS5003;49382;-25.924;28.194;2023-07-29T05:49:36;10;10;
40947;PMS5003;49382;-25.924;28.194;2023-07-29T05:52:01;12;11;
40947;PMS5003;49382;-25.924;28.194;2023-07-29T05:54:26;10;9;
40947;PMS5003;49382;-25.924;28.194;2023-07-29T05:56:51;8;8;
40947;PMS5003;49382;-25.924;28.194;2023-07-29T05:59:16;10;10;
40947;PMS5003;49382;-25.924;28.194;2023-07-29T06:01:41;12;11;
40947;PMS5003;49382;-25.924;28.194;2023-07-29T06:04:06;11;11;
40947;PMS5003;49382;-25.924;28.194;2023-07-29T06:06:32;16;12;
40947;PMS5003;49382;-25.924;28.194;2023-07-29T06:08:57;12;12;
40947;PMS5003;49382;-25.924;28.194;2023-07-29T06:11:22;11;11;
40947;PMS5003;49382;-25.924;28.194;2023-07-29T06:13:47;10;10;
40947;PMS5003;49382;-25.924;28.194;2023-07-29T06:16:12;8;7;
40947;PMS5003;49382;-25.924;28.194;2023-07-29T06:18:37;10;10;
40947;PMS5003;49382;-25.924;28.194;2023-07-29T06:21:02;74;74;
40947;PMS5003;49382;-25.924;28.194;2023-07-29T06:23:28;60;57;
40947;PMS5003;49382;-25.924;28.194;2023-07-29T06:25:53;79;79;
40947;PMS5003;49382;-25.924;28.194;2023-07-29T06:28:19;50;50;
40947;PMS5003;49382;-25.924;28.194;2023-07-29T06:30:45;19;18;
40947;PMS5003;49382;-25.924;28.194;2023-07-29T06:33:10;13;13;
40947;PMS5003;49382;-25.924;28.194;2023-07-29T06:35:35;12;12;
40947;PMS5003;49382;-25.924;28.194;2023-07-29T06:38:00;10;10;
40947;PMS5003;49382;-25.924;28.194;2023-07-29T06:40:25;12;12;
40947;PMS5003;49382;-25.924;28.194;2023-07-29T06:42:50;9;9;
40947;PMS5003;49382;-25.924;28.194;2023-07-29T06:45:15;8;8;
40947;PMS5003;49382;-25.924;28.194;2023-07-29T06:47:40;10;10;
40947;PMS5003;49382;-25.924;28.194;2023-07-29T06:50:06;9;9;
40947;PMS5003;49382;-25.924;28.194;2023-07-29T06:52:31;24;24;
40947;PMS5003;49382;-25.924;28.194;2023-07-29T06:54:56;11;11;
40947;PMS5003;49382;-25.924;28.194;2023-07-29T06:57:21;10;10;
40947;PMS5003;49382;-25.924;28.194;2023-07-29T06:59:46;12;11;
40947;PMS5003;49382;-25.924;28.194;2023-07-29T07:02:11;9;9;
40947;PMS5003;49382;-25.924;28.194;2023-07-29T07:04:36;11;11;
40947;PMS5003;49382;-25.924;28.194;2023-07-29T07:07:02;10;9;
40947;PMS5003;49382;-25.924;28.194;2023-07-29T07:09:27;8;8;
40947;PMS5003;49382;-25.924;28.194;2023-07-29T07:11:53;10;10;
40947;PMS5003;49382;-25.924;28.194;2023-07-29T07:14:19;10;10;
40947;PMS5003;49382;-25.924;28.194;2023-07-29T07:16:45;24;24;
40947;PMS5003;49382;-25.924;28.194;2023-07-29T07:19:10;9;9;
40947;PMS5003;49382;-25.924;28.194;2023-07-29T07:21:36;7;6;
40947;PMS5003;49382;-25.924;28.194;2023-07-29T07:24:01;7;7;
40947;PMS5003;49382;-25.924;28.194;2023-07-29T07:26:27;9;8;
40947;PMS5003;49382;-25.924;28.194;2023-07-29T07:28:53;9;8;
40947;PMS5003;49382;-25.924;28.194;2023-07-29T07:31:18;7;7;
40947;PMS5003;49382;-25.924;28.194;2023-07-29T07:33:44;56;54;
40947;PMS5003;49382;-25.924;28.194;2023-07-29T07:36:10;14;14;
40947;PMS5003;49382;-25.924;28.194;2023-07-29T07:38:35;6;6;
40947;PMS5003;49382;-25.924;28.194;2023-07-29T07:41:01;9;9;
40947;PMS5003;49382;-25.924;28.194;2023-07-29T07:43:27;12;12;
40947;PMS5003;49382;-25.924;28.194;2023-07-29T07:45:57;15;14;
40947;PMS5003;49382;-25.924;28.194;2023-07-29T07:48:18;7;6;
40947;PMS5003;49382;-25.924;28.194;2023-07-29T07:50:44;22;22;
40947;PMS5003;49382;-25.924;28.194;2023-07-29T07:53:09;29;29;
40947;PMS5003;49382;-25.924;28.194;2023-07-29T07:55:35;8;8;
40947;PMS5003;49382;-25.924;28.194;2023-07-29T07:58:01;6;6;
40947;PMS5003;49382;-25.924;28.194;2023-07-29T08:00:26;7;7;
40947;PMS5003;49382;-25.924;28.194;2023-07-29T08:02:52;4;4;
40947;PMS5003;49382;-25.924;28.194;2023-07-29T08:05:18;6;6;
40947;PMS5003;49382;-25.924;28.194;2023-07-29T08:07:43;9;6;
40947;PMS5003;49382;-25.924;28.194;2023-07-29T08:10:09;5;5;
40947;PMS5003;49382;-25.924;28.194;2023-07-29T08:12:35;4;4;
40947;PMS5003;49382;-25.924;28.194;2023-07-29T08:15:00;9;6;
40947;PMS5003;49382;-25.924;28.194;2023-07-29T08:17:26;13;13;
40947;PMS5003;49382;-25.924;28.194;2023-07-29T08:19:51;6;6;
40947;PMS5003;49382;-25.924;28.194;2023-07-29T08:22:17;5;5;
40947;PMS5003;49382;-25.924;28.194;2023-07-29T08:24:43;6;6;
40947;PMS5003;49382;-25.924;28.194;2023-07-29T08:27:08;4;4;
40947;PMS5003;49382;-25.924;28.194;2023-07-29T08:29:35;14;14;
40947;PMS5003;49382;-25.924;28.194;2023-07-29T08:32:00;7;7;
40947;PMS5003;49382;-25.924;28.194;2023-07-29T08:34:25;4;4;
40947;PMS5003;49382;-25.924;28.194;2023-07-29T08:36:51;4;4;
40947;PMS5003;49382;-25.924;28.194;2023-07-29T08:39:17;4;4;
40947;PMS5003;49382;-25.924;28.194;2023-07-29T08:41:45;4;4;
40947;PMS5003;49382;-25.924;28.194;2023-07-29T08:44:09;4;4;
40947;PMS5003;49382;-25.924;28.194;2023-07-29T08:46:35;4;4;
40947;PMS5003;49382;-25.924;28.194;2023-07-29T08:48:59;4;4;
40947;PMS5003;49382;-25.924;28.194;2023-07-29T08:51:26;5;5;
40947;PMS5003;49382;-25.924;28.194;2023-07-29T08:53:50;3;3;
40947;PMS5003;49382;-25.924;28.194;2023-07-29T08:56:16;5;4;
40947;PMS5003;49382;-25.924;28.194;2023-07-29T08:58:42;4;4;
40947;PMS5003;49382;-25.924;28.194;2023-07-29T09:01:07;6;6;
40947;PMS5003;49382;-25.924;28.194;2023-07-29T09:03:33;5;5;
40947;PMS5003;49382;-25.924;28.194;2023-07-29T09:05:59;5;5;
40947;PMS5003;49382;-25.924;28.194;2023-07-29T09:08:24;3;3;
40947;PMS5003;49382;-25.924;28.194;2023-07-29T09:10:50;3;3;
40947;PMS5003;49382;-25.924;28.194;2023-07-29T09:13:15;4;4;
40947;PMS5003;49382;-25.924;28.194;2023-07-29T09:15:41;7;6;
40947;PMS5003;49382;-25.924;28.194;2023-07-29T09:18:10;184;182;
40947;PMS5003;49382;-25.924;28.194;2023-07-29T09:20:31;4;4;
40947;PMS5003;49382;-25.924;28.194;2023-07-29T09:22:58;5;5;
40947;PMS5003;49382;-25.924;28.194;2023-07-29T09:25:24;9;6;
40947;PMS5003;49382;-25.924;28.194;2023-07-29T09:27:48;78;75;
40947;PMS5003;49382;-25.924;28.194;2023-07-29T09:30:15;5;5;
40947;PMS5003;49382;-25.924;28.194;2023-07-29T09:32:40;6;6;
40947;PMS5003;49382;-25.924;28.194;2023-07-29T09:35:08;7;7;
40947;PMS5003;49382;-25.924;28.194;2023-07-29T09:37:31;30;30;
40947;PMS5003;49382;-25.924;28.194;2023-07-29T09:39:57;85;84;
40947;PMS5003;49382;-25.924;28.194;2023-07-29T09:42:23;9;8;
40947;PMS5003;49382;-25.924;28.194;2023-07-29T09:44:49;7;7;
40947;PMS5003;49382;-25.924;28.194;2023-07-29T09:49:40;9;9;
40947;PMS5003;49382;-25.924;28.194;2023-07-29T09:52:06;8;8;
40947;PMS5003;49382;-25.924;28.194;2023-07-29T09:54:32;10;10;
40947;PMS5003;49382;-25.924;28.194;2023-07-29T09:56:57;11;11;
40947;PMS5003;49382;-25.924;28.194;2023-07-29T09:59:23;23;23;
40947;PMS5003;49382;-25.924;28.194;2023-07-29T10:01:49;41;41;
40947;PMS5003;49382;-25.924;28.194;2023-07-29T10:04:14;71;71;
40947;PMS5003;49382;-25.924;28.194;2023-07-29T10:06:39;26;25;
40947;PMS5003;49382;-25.924;28.194;2023-07-29T10:09:05;36;34;
40947;PMS5003;49382;-25.924;28.194;2023-07-29T10:11:30;55;52;
40947;PMS5003;49382;-25.924;28.194;2023-07-29T10:13:56;28;25;
40947;PMS5003;49382;-25.924;28.194;2023-07-29T10:16:21;43;40;
40947;PMS5003;49382;-25.924;28.194;2023-07-29T10:18:47;53;50;
40947;PMS5003;49382;-25.924;28.194;2023-07-29T10:21:12;29;26;
40947;PMS5003;49382;-25.924;28.194;2023-07-29T10:23:38;49;46;
40947;PMS5003;49382;-25.924;28.194;2023-07-29T10:26:03;30;26;
40947;PMS5003;49382;-25.924;28.194;2023-07-29T10:28:29;57;51;
40947;PMS5003;49382;-25.924;28.194;2023-07-29T10:30:53;63;60;
40947;PMS5003;49382;-25.924;28.194;2023-07-29T10:33:19;57;53;
40947;PMS5003;49382;-25.924;28.194;2023-07-29T10:35:45;35;32;
40947;PMS5003;49382;-25.924;28.194;2023-07-29T10:38:10;34;31;
40947;PMS5003;49382;-25.924;28.194;2023-07-29T10:43:02;45;42;
40947;PMS5003;49382;-25.924;28.194;2023-07-29T10:45:26;45;41;
40947;PMS5003;49382;-25.924;28.194;2023-07-29T10:47:52;54;50;
40947;PMS5003;49382;-25.924;28.194;2023-07-29T10:50:18;57;52;
40947;PMS5003;49382;-25.924;28.194;2023-07-29T10:52:43;47;43;
40947;PMS5003;49382;-25.924;28.194;2023-07-29T10:57:35;55;51;
40947;PMS5003;49382;-25.924;28.194;2023-07-29T10:59:59;64;61;
40947;PMS5003;49382;-25.924;28.194;2023-07-29T11:02:28;118;115;
40947;PMS5003;49382;-25.924;28.194;2023-07-29T11:04:50;109;106;
40947;PMS5003;49382;-25.924;28.194;2023-07-29T11:07:20;263;262;
40947;PMS5003;49382;-25.924;28.194;2023-07-29T11:09:41;203;202;
40947;PMS5003;49382;-25.924;28.194;2023-07-29T11:14:32;184;183;
40947;PMS5003;49382;-25.924;28.194;2023-07-29T11:16:57;192;191;
40947;PMS5003;49382;-25.924;28.194;2023-07-29T11:19:23;116;113;
40947;PMS5003;49382;-25.924;28.194;2023-07-29T11:21:48;96;93;
40947;PMS5003;49382;-25.924;28.194;2023-07-29T11:24:16;112;110;
40947;PMS5003;49382;-25.924;28.194;2023-07-29T11:29:05;246;246;
40947;PMS5003;49382;-25.924;28.194;2023-07-29T11:33:55;182;181;
40947;PMS5003;49382;-25.924;28.194;2023-07-29T11:36:20;180;179;
40947;PMS5003;49382;-25.924;28.194;2023-07-29T11:38:46;132;130;
40947;PMS5003;49382;-25.924;28.194;2023-07-29T11:41:11;160;157;
40947;PMS5003;49382;-25.924;28.194;2023-07-29T11:43:36;164;163;
40947;PMS5003;49382;-25.924;28.194;2023-07-29T11:46:02;133;132;
40947;PMS5003;49382;-25.924;28.194;2023-07-29T11:48:28;144;144;
40947;PMS5003;49382;-25.924;28.194;2023-07-29T11:50:53;17;15;
40947;PMS5003;49382;-25.924;28.194;2023-07-29T11:53:19;9;9;
40947;PMS5003;49382;-25.924;28.194;2023-07-29T11:55:45;9;9;
40947;PMS5003;49382;-25.924;28.194;2023-07-29T11:58:10;8;8;
40947;PMS5003;49382;-25.924;28.194;2023-07-29T12:00:36;8;8;
40947;PMS5003;49382;-25.924;28.194;2023-07-29T12:03:02;12;11;
40947;PMS5003;49382;-25.924;28.194;2023-07-29T12:05:28;11;10;
40947;PMS5003;49382;-25.924;28.194;2023-07-29T12:07:53;11;9;
40947;PMS5003;49382;-25.924;28.194;2023-07-29T12:10:19;7;7;
40947;PMS5003;49382;-25.924;28.194;2023-07-29T12:12:45;5;5;
40947;PMS5003;49382;-25.924;28.194;2023-07-29T12:15:11;9;8;
40947;PMS5003;49382;-25.924;28.194;2023-07-29T12:17:39;8;8;
40947;PMS5003;49382;-25.924;28.194;2023-07-29T12:20:03;8;8;
40947;PMS5003;49382;-25.924;28.194;2023-07-29T12:22:28;9;9;
40947;PMS5003;49382;-25.924;28.194;2023-07-29T12:24:54;7;7;
40947;PMS5003;49382;-25.924;28.194;2023-07-29T12:27:21;9;9;
40947;PMS5003;49382;-25.924;28.194;2023-07-29T12:29:46;12;11;
40947;PMS5003;49382;-25.924;28.194;2023-07-29T12:32:12;11;11;
40947;PMS5003;49382;-25.924;28.194;2023-07-29T12:34:38;8;8;
40947;PMS5003;49382;-25.924;28.194;2023-07-29T12:37:03;8;8;
40947;PMS5003;49382;-25.924;28.194;2023-07-29T12:39:30;11;10;
40947;PMS5003;49382;-25.924;28.194;2023-07-29T12:41:55;11;11;
40947;PMS5003;49382;-25.924;28.194;2023-07-29T12:44:21;11;9;
40947;PMS5003;49382;-25.924;28.194;2023-07-29T12:46:46;9;9;
40947;PMS5003;49382;-25.924;28.194;2023-07-29T12:49:12;11;10;
40947;PMS5003;49382;-25.924;28.194;2023-07-29T12:51:38;8;8;
40947;PMS5003;49382;-25.924;28.194;2023-07-29T12:54:03;10;10;
40947;PMS5003;49382;-25.924;28.194;2023-07-29T12:56:29;10;10;
40947;PMS5003;49382;-25.924;28.194;2023-07-29T12:58:54;8;8;
40947;PMS5003;49382;-25.924;28.194;2023-07-29T13:01:20;9;9;
40947;PMS5003;49382;-25.924;28.194;2023-07-29T13:03:47;10;9;
40947;PMS5003;49382;-25.924;28.194;2023-07-29T13:06:12;10;10;
40947;PMS5003;49382;-25.924;28.194;2023-07-29T13:08:38;9;8;
40947;PMS5003;49382;-25.924;28.194;2023-07-29T13:11:04;10;8;
40947;PMS5003;49382;-25.924;28.194;2023-07-29T13:13:29;8;8;
40947;PMS5003;49382;-25.924;28.194;2023-07-29T13:15:55;9;8;
40947;PMS5003;49382;-25.924;28.194;2023-07-29T13:18:21;8;8;
40947;PMS5003;49382;-25.924;28.194;2023-07-29T13:20:47;10;10;
40947;PMS5003;49382;-25.924;28.194;2023-07-29T13:23:12;10;9;
40947;PMS5003;49382;-25.924;28.194;2023-07-29T13:25:38;8;8;
40947;PMS5003;49382;-25.924;28.194;2023-07-29T13:28:04;10;9;
40947;PMS5003;49382;-25.924;28.194;2023-07-29T13:30:30;9;8;
40947;PMS5003;49382;-25.924;28.194;2023-07-29T13:32:56;9;8;
40947;PMS5003;49382;-25.924;28.194;2023-07-29T13:35:22;9;9;
40947;PMS5003;49382;-25.924;28.194;2023-07-29T13:37:47;10;9;
40947;PMS5003;49382;-25.924;28.194;2023-07-29T13:40:13;14;11;
40947;PMS5003;49382;-25.924;28.194;2023-07-29T13:42:38;9;9;
40947;PMS5003;49382;-25.924;28.194;2023-07-29T13:45:04;13;12;
40947;PMS5003;49382;-25.924;28.194;2023-07-29T13:47:29;14;11;
40947;PMS5003;49382;-25.924;28.194;2023-07-29T13:49:55;10;10;
40947;PMS5003;49382;-25.924;28.194;2023-07-29T13:52:21;14;13;
40947;PMS5003;49382;-25.924;28.194;2023-07-29T13:54:47;8;8;
40947;PMS5003;49382;-25.924;28.194;2023-07-29T13:57:13;13;13;
40947;PMS5003;49382;-25.924;28.194;2023-07-29T13:59:39;14;14;
40947;PMS5003;49382;-25.924;28.194;2023-07-29T14:02:04;12;12;
40947;PMS5003;49382;-25.924;28.194;2023-07-29T14:04:30;12;11;
40947;PMS5003;49382;-25.924;28.194;2023-07-29T14:06:56;9;9;
40947;PMS5003;49382;-25.924;28.194;2023-07-29T14:09:21;11;11;
40947;PMS5003;49382;-25.924;28.194;2023-07-29T14:11:47;9;9;
40947;PMS5003;49382;-25.924;28.194;2023-07-29T14:14:13;10;10;
40947;PMS5003;49382;-25.924;28.194;2023-07-29T14:16:39;12;12;
40947;PMS5003;49382;-25.924;28.194;2023-07-29T14:19:05;12;11;
40947;PMS5003;49382;-25.924;28.194;2023-07-29T14:21:31;13;13;
40947;PMS5003;49382;-25.924;28.194;2023-07-29T14:23:56;17;17;
40947;PMS5003;49382;-25.924;28.194;2023-07-29T14:26:22;16;15;
40947;PMS5003;49382;-25.924;28.194;2023-07-29T14:28:48;18;18;
40947;PMS5003;49382;-25.924;28.194;2023-07-29T14:31:13;26;25;
40947;PMS5003;49382;-25.924;28.194;2023-07-29T14:33:39;21;20;
40947;PMS5003;49382;-25.924;28.194;2023-07-29T14:36:04;25;25;
40947;PMS5003;49382;-25.924;28.194;2023-07-29T14:38:29;22;21;
40947;PMS5003;49382;-25.924;28.194;2023-07-29T14:40:54;23;22;
40947;PMS5003;49382;-25.924;28.194;2023-07-29T14:43:21;20;20;
40947;PMS5003;49382;-25.924;28.194;2023-07-29T14:45:45;16;16;
40947;PMS5003;49382;-25.924;28.194;2023-07-29T14:48:11;14;14;
40947;PMS5003;49382;-25.924;28.194;2023-07-29T14:50:36;26;26;
40947;PMS5003;49382;-25.924;28.194;2023-07-29T14:53:03;19;18;
40947;PMS5003;49382;-25.924;28.194;2023-07-29T14:55:28;17;12;
40947;PMS5003;49382;-25.924;28.194;2023-07-29T14:57:53;17;17;
40947;PMS5003;49382;-25.924;28.194;2023-07-29T15:00:19;30;30;
40947;PMS5003;49382;-25.924;28.194;2023-07-29T15:02:44;54;52;
40947;PMS5003;49382;-25.924;28.194;2023-07-29T15:05:10;35;35;
40947;PMS5003;49382;-25.924;28.194;2023-07-29T15:07:35;35;34;
40947;PMS5003;49382;-25.924;28.194;2023-07-29T15:10:01;24;24;
40947;PMS5003;49382;-25.924;28.194;2023-07-29T15:12:26;24;24;
40947;PMS5003;49382;-25.924;28.194;2023-07-29T15:14:51;53;53;
40947;PMS5003;49382;-25.924;28.194;2023-07-29T15:17:17;168;167;
40947;PMS5003;49382;-25.924;28.194;2023-07-29T15:19:42;118;117;
40947;PMS5003;49382;-25.924;28.194;2023-07-29T15:22:07;27;26;
40947;PMS5003;49382;-25.924;28.194;2023-07-29T15:24:33;77;77;
40947;PMS5003;49382;-25.924;28.194;2023-07-29T15:26:58;24;22;
40947;PMS5003;49382;-25.924;28.194;2023-07-29T15:29:24;12;12;
40947;PMS5003;49382;-25.924;28.194;2023-07-29T15:31:50;13;13;
40947;PMS5003;49382;-25.924;28.194;2023-07-29T15:34:15;15;15;
40947;PMS5003;49382;-25.924;28.194;2023-07-29T15:36:41;13;13;
40947;PMS5003;49382;-25.924;28.194;2023-07-29T15:39:07;14;13;
40947;PMS5003;49382;-25.924;28.194;2023-07-29T15:41:33;14;13;
40947;PMS5003;49382;-25.924;28.194;2023-07-29T15:43:59;14;13;
40947;PMS5003;49382;-25.924;28.194;2023-07-29T15:46:24;16;15;
40947;PMS5003;49382;-25.924;28.194;2023-07-29T15:48:50;17;17;
40947;PMS5003;49382;-25.924;28.194;2023-07-29T15:51:15;22;21;
40947;PMS5003;49382;-25.924;28.194;2023-07-29T15:53:41;19;17;